createdAt,value
2022-08-22T00:00:24.786Z,1.38
2022-08-22T00:02:46.390Z,1.30
2022-08-22T00:02:47.240Z,1.55
2022-08-22T00:02:54.996Z,1.70
2022-08-22T00:02:57.281Z,1.80
2022-08-22T00:03:01.119Z,1.50
2022-08-22T00:03:06.993Z,1.67
2022-08-22T00:03:09.241Z,1.75
2022-08-22T00:03:15.091Z,1.35
2022-08-22T00:03:18.451Z,1.70
2022-08-22T00:05:59.681Z,1.70
2022-08-22T00:08:33.789Z,1.48
2022-08-22T00:11:13.100Z,1.70
2022-08-22T00:13:46.371Z,1.35
2022-08-22T00:16:19.824Z,1.65
2022-08-22T00:18:55.166Z,1.70
2022-08-22T00:21:30.758Z,1.40
2022-08-22T00:24:08.738Z,1.77
2022-08-22T00:26:47.094Z,2.00
2022-08-22T00:29:20.961Z,1.88
2022-08-22T00:31:53.871Z,1.75
2022-08-22T00:34:31.982Z,1.92
2022-08-22T00:37:06.053Z,1.48
2022-08-22T00:39:40.199Z,1.63
2022-08-22T00:42:46.619Z,1.75
2022-08-22T00:45:41.452Z,1.65
2022-08-22T00:48:44.456Z,2.17
2022-08-22T00:51:34.785Z,1.60
2022-08-22T00:54:16.858Z,1.70
2022-08-22T00:57:18.564Z,2.20
2022-08-22T01:00:11.140Z,1.73
2022-08-22T01:02:59.878Z,2.08
2022-08-22T01:05:52.049Z,2.10
2022-08-22T01:08:40.362Z,1.70
2022-08-22T01:11:27.478Z,1.70
2022-08-22T01:14:15.876Z,1.90
2022-08-22T01:17:08.092Z,2.20
2022-08-22T01:20:23.516Z,1.58
2022-08-22T01:23:24.858Z,2.10
2022-08-22T01:26:36.383Z,1.60
2022-08-22T01:29:37.305Z,1.75
2022-08-22T01:32:45.359Z,1.70
2022-08-22T01:35:38.128Z,1.75
2022-08-22T01:38:53.725Z,1.50
2022-08-22T01:41:52.950Z,1.70
2022-08-22T01:44:39.352Z,1.73
2022-08-22T01:47:13.753Z,1.75
2022-08-22T01:49:47.600Z,1.77
2022-08-22T01:52:35.713Z,1.80
2022-08-22T01:55:11.550Z,1.58
2022-08-22T01:57:53.224Z,1.58
2022-08-22T02:00:35.165Z,1.83
2022-08-22T02:03:24.262Z,1.30
2022-08-22T02:05:59.713Z,1.55
2022-08-22T02:08:39.153Z,1.80
2022-08-22T02:11:10.668Z,1.60
2022-08-22T02:13:52.386Z,1.67
2022-08-22T02:16:33.658Z,2.10
2022-08-22T02:19:19.457Z,1.92
2022-08-22T02:21:53.531Z,1.95
2022-08-22T02:24:46.182Z,1.48
2022-08-22T02:27:32.657Z,1.25
2022-08-22T02:30:05.812Z,1.48
2022-08-22T02:32:46.398Z,1.75
2022-08-22T02:35:23.394Z,1.75
2022-08-22T02:38:01.379Z,1.48
2022-08-22T02:40:38.916Z,1.60
2022-08-22T02:43:18.228Z,2.00
2022-08-22T02:45:52.076Z,1.40
2022-08-22T02:48:35.257Z,1.60
2022-08-22T02:51:11.673Z,2.03
2022-08-22T02:53:49.415Z,1.63
2022-08-22T02:56:23.715Z,1.70
2022-08-22T02:58:59.253Z,1.38
2022-08-22T03:01:41.278Z,1.48
2022-08-22T03:04:26.845Z,1.80
2022-08-22T03:07:11.307Z,1.73
2022-08-22T03:09:46.740Z,2.00
2022-08-22T03:12:26.443Z,1.60
2022-08-22T03:15:03.283Z,1.35
2022-08-22T03:17:34.697Z,1.60
2022-08-22T03:20:08.237Z,1.65
2022-08-22T03:22:44.673Z,1.65
2022-08-22T03:25:23.535Z,1.75
2022-08-22T03:28:00.199Z,2.00
2022-08-22T03:30:35.045Z,1.50
2022-08-22T03:33:17.661Z,1.60
2022-08-22T03:36:26.067Z,2.03
2022-08-22T03:39:12.346Z,1.80
2022-08-22T03:42:23.120Z,1.90
2022-08-22T03:45:18.670Z,1.98
2022-08-22T03:48:10.448Z,2.20
2022-08-22T03:50:57.045Z,1.65
2022-08-22T03:53:52.703Z,1.83
2022-08-22T03:57:13.200Z,2.30
2022-08-22T04:00:06.411Z,2.10
2022-08-22T04:03:14.421Z,2.17
2022-08-22T04:06:16.936Z,2.97
2022-08-22T04:09:19.478Z,2.13
2022-08-22T04:12:14.606Z,2.50
2022-08-22T04:15:20.686Z,2.05
2022-08-22T04:18:09.092Z,1.90
2022-08-22T04:21:03.449Z,2.45
2022-08-22T04:23:53.315Z,1.98
2022-08-22T04:26:32.646Z,2.60
2022-08-22T04:29:06.793Z,2.20
2022-08-22T04:31:46.254Z,2.08
2022-08-22T04:34:30.804Z,2.45
2022-08-22T04:37:05.436Z,2.45
2022-08-22T04:39:41.506Z,1.90
2022-08-22T04:42:32.161Z,1.90
2022-08-22T04:45:07.073Z,2.40
2022-08-22T04:47:39.379Z,2.42
2022-08-22T04:50:17.321Z,2.00
2022-08-22T04:53:03.219Z,2.40
2022-08-22T04:55:40.980Z,1.95
2022-08-22T04:58:30.229Z,1.83
2022-08-22T05:01:05.735Z,2.10
2022-08-22T05:03:39.137Z,2.05
2022-08-22T05:06:13.566Z,1.90
2022-08-22T05:08:43.073Z,2.10
2022-08-22T05:11:12.757Z,1.70
2022-08-22T05:13:44.341Z,1.95
2022-08-22T05:16:18.284Z,1.80
2022-08-22T05:18:51.498Z,1.70
2022-08-22T05:21:24.446Z,1.70
2022-08-22T05:24:01.662Z,1.70
2022-08-22T05:26:36.756Z,2.15
2022-08-22T05:29:09.380Z,2.00
2022-08-22T05:31:49.428Z,1.95
2022-08-22T05:34:21.705Z,1.38
2022-08-22T05:36:57.018Z,2.05
2022-08-22T05:39:28.307Z,1.55
2022-08-22T05:41:58.428Z,1.70
2022-08-22T05:44:29.498Z,1.90
2022-08-22T05:47:02.121Z,1.40
2022-08-22T05:49:37.557Z,1.55
2022-08-22T05:52:17.170Z,1.63
2022-08-22T05:54:52.005Z,1.63
2022-08-22T05:57:28.933Z,1.45
2022-08-22T06:00:03.514Z,1.77
2022-08-22T06:02:49.699Z,1.67
2022-08-22T06:05:25.898Z,1.52
2022-08-22T06:07:59.665Z,1.77
2022-08-22T06:10:40.160Z,2.05
2022-08-22T06:13:12.918Z,1.58
2022-08-22T06:15:48.168Z,1.90
2022-08-22T06:18:20.893Z,1.80
2022-08-22T06:20:53.723Z,1.83
2022-08-22T06:23:28.822Z,1.40
2022-08-22T06:26:00.553Z,1.90
2022-08-22T06:28:35.535Z,1.67
2022-08-22T06:31:06.375Z,1.90
2022-08-22T06:33:41.523Z,1.80
2022-08-22T06:36:32.017Z,1.70
2022-08-22T06:39:22.938Z,1.60
2022-08-22T06:41:54.009Z,2.47
2022-08-22T06:44:25.390Z,1.73
2022-08-22T06:46:57.548Z,1.63
2022-08-22T06:49:27.728Z,1.80
2022-08-22T06:52:01.372Z,1.90
2022-08-22T06:54:36.311Z,1.85
2022-08-22T06:57:06.797Z,1.50
2022-08-22T06:59:39.369Z,1.52
2022-08-22T07:02:23.138Z,1.40
2022-08-22T07:04:52.583Z,1.50
2022-08-22T07:07:25.121Z,1.55
2022-08-22T07:09:57.600Z,1.50
2022-08-22T07:12:30.905Z,1.40
2022-08-22T07:15:05.425Z,1.25
2022-08-22T07:17:35.941Z,2.00
2022-08-22T07:20:24.355Z,1.80
2022-08-22T07:22:55.352Z,1.90
2022-08-22T07:25:25.470Z,1.30
2022-08-22T07:28:04.458Z,1.88
2022-08-22T07:30:47.853Z,1.65
2022-08-22T07:33:39.289Z,1.75
2022-08-22T07:36:23.019Z,1.40
2022-08-22T07:39:04.852Z,1.58
2022-08-22T07:41:49.089Z,1.27
2022-08-22T07:44:20.468Z,1.27
2022-08-22T07:46:58.040Z,1.30
2022-08-22T07:49:31.661Z,1.33
2022-08-22T07:52:05.201Z,1.58
2022-08-22T07:54:39.412Z,1.50
2022-08-22T07:57:13.146Z,1.45
2022-08-22T07:59:49.468Z,1.20
2022-08-22T08:02:19.843Z,1.30
2022-08-22T08:04:50.726Z,1.63
2022-08-22T08:07:22.546Z,1.08
2022-08-22T08:09:54.732Z,1.50
2022-08-22T08:12:31.858Z,1.50
2022-08-22T08:15:01.339Z,1.17
2022-08-22T08:17:32.352Z,1.20
2022-08-22T08:20:06.531Z,1.75
2022-08-22T08:22:35.539Z,1.92
2022-08-22T08:25:04.275Z,1.45
2022-08-22T08:27:55.854Z,0.98
2022-08-22T08:30:35.736Z,1.70
2022-08-22T08:33:25.136Z,1.33
2022-08-22T08:36:03.915Z,1.40
2022-08-22T08:38:37.615Z,1.20
2022-08-22T08:41:29.605Z,1.20
2022-08-22T08:44:07.185Z,1.00
2022-08-22T08:47:02.218Z,1.48
2022-08-22T08:49:44.613Z,1.10
2022-08-22T08:52:43.934Z,1.20
2022-08-22T08:55:22.880Z,1.23
2022-08-22T08:58:06.988Z,1.00
2022-08-22T09:00:51.604Z,0.75
2022-08-22T09:03:40.164Z,0.90
2022-08-22T09:06:42.545Z,0.63
2022-08-22T09:09:45.408Z,0.80
2022-08-22T09:12:52.196Z,0.93
2022-08-22T09:15:41.705Z,0.70
2022-08-22T09:18:39.864Z,0.77
2022-08-22T09:21:40.244Z,0.98
2022-08-22T09:24:38.235Z,0.85
2022-08-22T09:27:16.193Z,0.80
2022-08-22T09:29:55.063Z,0.80
2022-08-22T09:32:47.225Z,0.88
2022-08-22T09:35:26.663Z,0.70
2022-08-22T09:38:24.146Z,0.90
2022-08-22T09:41:00.861Z,1.02
2022-08-22T09:43:39.611Z,1.00
2022-08-22T09:46:18.761Z,0.93
2022-08-22T09:48:59.278Z,0.90
2022-08-22T09:51:39.743Z,0.80
2022-08-22T09:54:16.401Z,0.80
2022-08-22T09:57:03.463Z,0.88
2022-08-22T09:59:45.697Z,1.20
2022-08-22T10:02:28.685Z,0.80
2022-08-22T10:05:04.103Z,0.88
2022-08-22T10:07:54.869Z,1.10
2022-08-22T10:10:35.280Z,1.05
2022-08-22T10:13:13.248Z,0.93
2022-08-22T10:15:44.771Z,0.80
2022-08-22T10:18:24.416Z,0.77
2022-08-22T10:21:09.088Z,0.80
2022-08-22T10:23:45.923Z,1.15
2022-08-22T10:26:29.594Z,1.00
2022-08-22T10:29:08.598Z,0.68
2022-08-22T10:31:59.184Z,0.73
2022-08-22T10:34:34.829Z,0.70
2022-08-22T10:37:13.896Z,0.90
2022-08-22T10:39:47.791Z,0.85
2022-08-22T10:42:28.028Z,0.88
2022-08-22T10:45:35.128Z,0.98
2022-08-22T10:48:26.800Z,0.70
2022-08-22T10:51:04.090Z,0.70
2022-08-22T10:53:46.714Z,0.70
2022-08-22T10:56:24.492Z,0.60
2022-08-22T10:59:04.407Z,0.55
2022-08-22T11:01:41.823Z,0.50
2022-08-22T11:04:19.246Z,0.55
2022-08-22T11:07:05.978Z,0.65
2022-08-22T11:09:41.649Z,0.60
2022-08-22T11:12:21.444Z,0.80
2022-08-22T11:15:07.469Z,0.70
2022-08-22T11:18:12.886Z,0.63
2022-08-22T11:20:52.496Z,0.60
2022-08-22T11:23:36.010Z,0.80
2022-08-22T11:26:13.446Z,0.68
2022-08-22T11:29:22.997Z,0.65
2022-08-22T11:32:06.603Z,0.50
2022-08-22T11:35:00.446Z,0.70
2022-08-22T11:37:45.043Z,0.60
2022-08-22T11:40:33.797Z,0.60
2022-08-22T11:43:18.049Z,1.00
2022-08-22T11:45:49.162Z,0.57
2022-08-22T11:48:25.681Z,0.60
2022-08-22T11:51:01.542Z,0.68
2022-08-22T11:53:38.100Z,0.50
2022-08-22T11:56:19.974Z,0.50
2022-08-22T11:58:57.199Z,0.60
2022-08-22T12:01:34.516Z,1.10
2022-08-22T12:04:12.684Z,0.60
2022-08-22T12:06:56.867Z,0.60
2022-08-22T12:09:50.590Z,0.60
2022-08-22T12:12:39.869Z,0.47
2022-08-22T12:15:18.619Z,0.80
2022-08-22T12:18:20.059Z,0.68
2022-08-22T12:21:21.579Z,0.75
2022-08-22T12:24:27.914Z,0.60
2022-08-22T12:27:28.989Z,0.90
2022-08-22T12:30:13.674Z,0.30
2022-08-22T12:33:21.936Z,0.30
2022-08-22T12:36:09.626Z,0.50
2022-08-22T12:39:03.163Z,0.60
2022-08-22T12:41:46.845Z,0.73
2022-08-22T12:44:32.677Z,0.50
2022-08-22T12:47:24.920Z,0.70
2022-08-22T12:50:14.275Z,0.60
2022-08-22T12:53:01.194Z,0.80
2022-08-22T12:55:48.904Z,0.50
2022-08-22T12:58:34.052Z,0.50
2022-08-22T13:01:07.163Z,0.80
2022-08-22T13:03:42.429Z,0.47
2022-08-22T13:06:53.439Z,0.55
2022-08-22T13:09:30.638Z,0.60
2022-08-22T13:12:05.811Z,0.68
2022-08-22T13:14:35.422Z,0.70
2022-08-22T13:17:23.866Z,0.73
2022-08-22T13:20:02.563Z,0.68
2022-08-22T13:22:34.961Z,0.73
2022-08-22T13:25:08.816Z,0.73
2022-08-22T13:27:51.078Z,0.63
2022-08-22T13:30:22.441Z,0.82
2022-08-22T13:32:54.176Z,0.60
2022-08-22T13:35:25.781Z,0.55
2022-08-22T13:37:59.628Z,0.73
2022-08-22T13:40:30.847Z,0.70
2022-08-22T13:43:05.676Z,0.70
2022-08-22T13:45:36.153Z,0.60
2022-08-22T13:48:11.712Z,0.50
2022-08-22T13:51:04.217Z,0.98
2022-08-22T13:53:42.396Z,0.60
2022-08-22T13:56:22.050Z,0.70
2022-08-22T13:58:57.327Z,0.50
2022-08-22T14:01:38.989Z,0.80
2022-08-22T14:04:17.756Z,0.65
2022-08-22T14:07:24.358Z,0.55
2022-08-22T14:09:56.946Z,0.70
2022-08-22T14:12:33.304Z,0.50
2022-08-22T14:15:05.934Z,0.82
2022-08-22T14:17:42.644Z,0.52
2022-08-22T14:20:14.202Z,0.63
2022-08-22T14:23:04.687Z,0.75
2022-08-22T14:25:37.017Z,0.50
2022-08-22T14:28:09.432Z,0.63
2022-08-22T14:31:02.419Z,0.45
2022-08-22T14:33:36.553Z,0.60
2022-08-22T14:36:17.087Z,0.60
2022-08-22T14:38:51.301Z,0.70
2022-08-22T14:41:52.420Z,0.47
2022-08-22T14:44:23.480Z,0.65
2022-08-22T14:46:57.442Z,0.70
2022-08-22T14:49:29.664Z,0.68
2022-08-22T14:52:03.986Z,0.65
2022-08-22T14:54:33.834Z,0.40
2022-08-22T14:57:04.843Z,0.55
2022-08-22T14:59:50.315Z,0.60
2022-08-22T15:02:28.812Z,0.60
2022-08-22T15:05:01.673Z,0.50
2022-08-22T15:07:33.657Z,0.50
2022-08-22T15:10:05.977Z,0.70
2022-08-22T15:12:37.671Z,0.60
2022-08-22T15:15:12.223Z,0.40
2022-08-22T15:17:45.793Z,0.57
2022-08-22T15:20:28.090Z,0.70
2022-08-22T15:23:00.047Z,0.60
2022-08-22T15:25:33.309Z,0.68
2022-08-22T15:28:13.983Z,0.40
2022-08-22T15:30:45.301Z,0.57
2022-08-22T15:33:22.816Z,0.80
2022-08-22T15:35:53.616Z,0.70
2022-08-22T15:38:32.115Z,0.60
2022-08-22T15:41:38.139Z,0.55
2022-08-22T15:44:14.928Z,0.60
2022-08-22T15:47:04.213Z,0.70
2022-08-22T15:49:37.933Z,0.50
2022-08-22T15:52:14.710Z,0.82
2022-08-22T15:55:22.197Z,0.68
2022-08-22T15:58:02.555Z,0.50
2022-08-22T16:00:35.130Z,0.70
2022-08-22T16:03:07.917Z,0.80
2022-08-22T16:05:50.827Z,0.65
2022-08-22T16:08:26.817Z,0.68
2022-08-22T16:11:19.459Z,0.40
2022-08-22T16:13:48.305Z,0.57
2022-08-22T16:16:49.648Z,0.70
2022-08-22T16:19:24.244Z,1.15
2022-08-22T16:22:15.372Z,0.93
2022-08-22T16:25:05.964Z,0.90
2022-08-22T16:27:35.287Z,0.70
2022-08-22T16:30:13.917Z,0.85
2022-08-22T16:32:53.164Z,0.80
2022-08-22T16:35:58.415Z,0.60
2022-08-22T16:38:36.720Z,0.45
2022-08-22T16:41:05.469Z,0.45
2022-08-22T16:43:34.014Z,0.47
2022-08-22T16:46:02.698Z,0.90
2022-08-22T16:48:37.506Z,0.70
2022-08-22T16:51:10.790Z,0.50
2022-08-22T16:54:13.616Z,0.50
2022-08-22T16:57:04.182Z,0.57
2022-08-22T17:00:02.397Z,0.65
2022-08-22T17:02:59.849Z,0.50
2022-08-22T17:05:41.999Z,0.60
2022-08-22T17:08:34.046Z,0.88
2022-08-22T17:11:18.401Z,0.45
2022-08-22T17:14:01.640Z,0.60
2022-08-22T17:16:45.582Z,1.02
2022-08-22T17:19:27.752Z,0.55
2022-08-22T17:21:58.936Z,0.90
2022-08-22T17:24:35.097Z,0.65
2022-08-22T17:27:13.583Z,0.77
2022-08-22T17:29:52.147Z,0.82
2022-08-22T17:32:30.256Z,0.70
2022-08-22T17:35:04.600Z,0.60
2022-08-22T17:37:42.604Z,0.77
2022-08-22T17:40:29.250Z,0.60
2022-08-22T17:43:12.528Z,0.70
2022-08-22T17:46:00.582Z,0.65
2022-08-22T17:48:35.677Z,0.90
2022-08-22T17:51:17.045Z,0.98
2022-08-22T17:53:49.282Z,0.85
2022-08-22T17:56:24.037Z,0.80
2022-08-22T17:59:01.587Z,0.90
2022-08-22T18:01:56.688Z,1.30
2022-08-22T18:04:32.345Z,0.98
2022-08-22T18:07:20.577Z,1.17
2022-08-22T18:09:53.684Z,1.20
2022-08-22T18:12:30.080Z,1.27
2022-08-22T18:15:08.281Z,1.10
2022-08-22T18:17:41.365Z,1.20
2022-08-22T18:20:14.730Z,1.15
2022-08-22T18:22:47.448Z,0.88
2022-08-22T18:25:33.736Z,1.58
2022-08-22T18:28:07.617Z,1.55
2022-08-22T18:30:48.639Z,1.15
2022-08-22T18:33:23.991Z,1.33
2022-08-22T18:36:00.380Z,1.52
2022-08-22T18:38:35.691Z,1.10
2022-08-22T18:41:09.951Z,1.52
2022-08-22T18:43:40.325Z,1.42
2022-08-22T18:46:47.851Z,1.20
2022-08-22T18:49:43.557Z,1.15
2022-08-22T18:52:21.871Z,1.33
2022-08-22T18:55:20.162Z,1.70
2022-08-22T18:58:04.031Z,1.50
2022-08-22T19:00:53.942Z,1.55
2022-08-22T19:03:48.825Z,1.63
2022-08-22T19:06:43.527Z,1.75
2022-08-22T19:09:35.944Z,1.30
2022-08-22T19:12:18.433Z,1.42
2022-08-22T19:15:21.685Z,1.30
2022-08-22T19:18:15.890Z,1.55
2022-08-22T19:21:11.052Z,1.17
2022-08-22T19:23:46.333Z,1.20
2022-08-22T19:26:32.609Z,1.23
2022-08-22T19:29:05.764Z,1.25
2022-08-22T19:31:51.521Z,1.40
2022-08-22T19:34:35.570Z,1.55
2022-08-22T19:37:34.113Z,1.45
2022-08-22T19:40:05.886Z,1.35
2022-08-22T19:42:45.161Z,1.67
2022-08-22T19:45:25.767Z,1.88
2022-08-22T19:48:01.640Z,1.75
2022-08-22T19:50:34.207Z,1.73
2022-08-22T19:53:22.684Z,1.80
2022-08-22T19:56:05.542Z,1.60
2022-08-22T19:58:47.124Z,1.38
2022-08-22T20:01:34.273Z,1.40
2022-08-22T20:04:07.005Z,1.95
2022-08-22T20:06:44.590Z,1.45
2022-08-22T20:09:27.706Z,1.60
2022-08-22T20:12:06.917Z,1.55
2022-08-22T20:14:37.068Z,1.30
2022-08-22T20:17:12.824Z,1.40
2022-08-22T20:22:43.738Z,1.27
2022-08-22T20:25:42.116Z,1.55
2022-08-22T20:28:11.000Z,1.35
2022-08-22T20:30:42.277Z,1.20
2022-08-22T20:33:14.791Z,1.40
2022-08-22T20:35:46.764Z,1.50
2022-08-22T20:38:18.917Z,2.00
2022-08-22T20:40:57.318Z,1.90
2022-08-22T20:43:34.508Z,1.63
2022-08-22T20:46:19.123Z,1.58
2022-08-22T20:48:50.428Z,1.23
2022-08-22T20:51:25.250Z,1.58
2022-08-22T20:53:57.197Z,1.40
2022-08-22T20:56:52.809Z,1.40
2022-08-22T20:59:32.033Z,2.00
2022-08-22T21:02:15.341Z,1.45
2022-08-22T21:04:52.795Z,1.27
2022-08-22T21:07:27.790Z,1.67
2022-08-22T21:10:18.979Z,1.65
2022-08-22T21:13:05.908Z,1.80
2022-08-22T21:15:35.247Z,1.73
2022-08-22T21:18:03.384Z,1.73
2022-08-22T21:20:35.079Z,1.70
2022-08-22T21:23:05.154Z,1.70
2022-08-22T21:25:33.925Z,1.73
2022-08-22T21:28:03.377Z,1.60
2022-08-22T21:30:36.912Z,1.50
2022-08-22T21:33:05.009Z,1.33
2022-08-22T21:35:34.405Z,1.75
2022-08-22T21:38:03.274Z,2.38
2022-08-22T21:40:34.457Z,1.90
2022-08-22T21:43:09.214Z,1.50
2022-08-22T21:45:43.634Z,1.67
2022-08-22T21:48:35.211Z,1.92
2022-08-22T21:51:22.259Z,1.48
2022-08-22T21:54:05.611Z,2.17
2022-08-22T21:56:38.449Z,1.50
2022-08-22T21:59:50.691Z,1.50
2022-08-22T22:02:36.798Z,1.60
2022-08-22T22:05:09.545Z,1.95
2022-08-22T22:07:40.904Z,2.05
2022-08-22T22:10:11.656Z,2.13
2022-08-22T22:12:40.669Z,2.17
2022-08-22T22:15:14.142Z,1.83
2022-08-22T22:17:42.088Z,1.92
2022-08-22T22:20:11.390Z,1.73
2022-08-22T22:22:46.578Z,2.03
2022-08-22T22:25:40.889Z,1.52
2022-08-22T22:28:06.841Z,1.55
2022-08-22T22:30:36.861Z,1.70
2022-08-22T22:33:05.060Z,2.00
2022-08-22T22:35:33.652Z,1.80
2022-08-22T22:38:02.135Z,1.83
2022-08-22T22:40:30.897Z,2.05
2022-08-22T22:42:59.176Z,1.80
2022-08-22T22:45:27.116Z,1.70
2022-08-22T22:47:56.834Z,1.50
2022-08-22T22:50:25.406Z,2.15
2022-08-22T22:52:54.115Z,2.53
2022-08-22T22:55:24.302Z,1.92
2022-08-22T22:57:59.072Z,2.20
2022-08-22T23:00:29.143Z,1.83
2022-08-22T23:03:01.626Z,1.80
2022-08-22T23:05:30.114Z,1.83
2022-08-22T23:07:58.862Z,1.75
2022-08-22T23:10:27.601Z,2.13
2022-08-22T23:12:55.768Z,2.28
2022-08-22T23:15:23.743Z,1.73
2022-08-22T23:17:52.092Z,1.83
2022-08-22T23:20:21.669Z,1.80
2022-08-22T23:22:49.621Z,2.17
2022-08-22T23:25:17.835Z,2.08
2022-08-22T23:27:48.708Z,2.00
2022-08-22T23:30:21.033Z,2.10
2022-08-22T23:32:49.222Z,2.10
2022-08-22T23:35:17.200Z,1.77
2022-08-22T23:37:46.570Z,2.25
2022-08-22T23:40:14.934Z,2.00
2022-08-22T23:42:43.429Z,1.70
2022-08-22T23:45:11.698Z,1.70
2022-08-22T23:47:39.794Z,1.80
2022-08-22T23:50:07.981Z,1.92
2022-08-22T23:52:36.085Z,1.90
2022-08-22T23:55:06.060Z,1.50
2022-08-22T23:57:34.138Z,2.17
